Time;durP1;ratioP1;P1;durP2;ratioP2;P2;SDS_P1;SDS_P2;PMS_P1;PMS_P2;Temp;Humidity;BMP_temperature;BMP_pressure;BME280_temperature;BME280_humidity;BME280_pressure;Samples;Min_cycle;Max_cycle;Signal;HPM_P1;HPM_P2
2022/08/26 00:01:49;;;;;;;10.48;4.30;;;;;;;19.90;100.00;100928.56;5011709;28;20446;-90
2022/08/26 00:04:23;;;;;;;8.40;4.45;;;;;;;19.91;100.00;100932.94;5028030;28;20426;-89
2022/08/26 00:06:57;;;;;;;9.97;4.70;;;;;;;19.86;100.00;100931.19;5010339;28;20814;-87
2022/08/26 00:09:32;;;;;;;9.20;3.92;;;;;;;19.66;100.00;100907.13;5030623;28;20430;-90
2022/08/26 00:12:00;;;;;;;9.85;4.55;;;;;;;19.66;100.00;100932.75;5031493;28;20866;-89
2022/08/26 00:14:28;;;;;;;7.80;4.45;;;;;;;19.70;100.00;100932.91;5014805;28;20419;-89
2022/08/26 00:17:01;;;;;;;11.27;4.72;;;;;;;19.65;100.00;100931.16;5009603;28;20420;-88
2022/08/26 00:19:34;;;;;;;9.25;4.53;;;;;;;19.52;100.00;100926.69;5027718;28;20427;-91
2022/08/26 00:22:02;;;;;;;8.20;4.53;;;;;;;19.51;100.00;100930.59;5021125;28;20428;-90
2022/08/26 00:24:32;;;;;;;9.77;4.30;;;;;;;19.53;100.00;100922.81;5015388;28;20423;-89
2022/08/26 00:27:05;;;;;;;9.48;4.32;;;;;;;19.61;100.00;100926.63;5030936;28;20427;-89
2022/08/26 00:29:38;;;;;;;11.07;4.60;;;;;;;19.40;100.00;100908.09;5022906;28;20439;-90
2022/08/26 00:32:12;;;;;;;10.68;4.32;;;;;;;19.44;100.00;100924.81;5028926;28;20788;-90
2022/08/26 00:34:45;;;;;;;9.57;4.40;;;;;;;19.46;100.00;100915.06;5004210;28;20806;-89
2022/08/26 00:37:13;;;;;;;9.35;4.72;;;;;;;19.48;100.00;100917.47;5027401;28;20775;-88
2022/08/26 00:39:48;;;;;;;9.02;4.55;;;;;;;19.39;100.00;100917.53;5013529;28;20756;-90
2022/08/26 00:42:21;;;;;;;8.70;4.38;;;;;;;19.28;100.00;100896.97;5028003;28;20430;-89
2022/08/26 00:44:49;;;;;;;9.10;4.60;;;;;;;19.43;100.00;100921.25;5011249;28;20887;-90
2022/08/26 00:47:27;;;;;;;8.27;4.40;;;;;;;19.37;100.00;100915.13;5025705;28;20452;-89
2022/08/26 00:49:56;;;;;;;9.18;4.95;;;;;;;19.29;100.00;100915.97;5019320;28;20769;-89
2022/08/26 00:52:29;;;;;;;9.02;4.85;;;;;;;19.30;100.00;100911.25;5016227;28;20427;-89
2022/08/26 00:55:08;;;;;;;9.88;4.50;;;;;;;19.31;100.00;100919.19;5021140;28;20945;-90
2022/08/26 00:57:42;;;;;;;8.48;4.50;;;;;;;19.30;100.00;100911.25;5027143;28;20791;-89
2022/08/26 01:00:20;;;;;;;9.07;4.85;;;;;;;19.27;100.00;100915.47;5029925;28;20937;-91
2022/08/26 01:02:55;;;;;;;9.13;4.47;;;;;;;19.25;100.00;100922.47;5010649;28;20430;-90
2022/08/26 01:05:29;;;;;;;9.50;5.03;;;;;;;19.25;100.00;100916.94;5027905;28;20427;-89
2022/08/26 01:08:02;;;;;;;10.20;4.88;;;;;;;19.14;100.00;100909.06;5017566;28;20439;-90
2022/08/26 01:10:32;;;;;;;11.50;4.65;;;;;;;19.23;100.00;100913.72;5011554;28;20427;-89
2022/08/26 01:13:09;;;;;;;8.37;4.50;;;;;;;19.19;100.00;100913.56;5012322;28;20426;-89
2022/08/26 01:15:45;;;;;;;10.45;4.50;;;;;;;19.22;100.00;100915.66;5010481;28;20423;-89
2022/08/26 01:18:19;;;;;;;9.25;4.22;;;;;;;19.20;100.00;100915.22;5006413;28;20423;-90
2022/08/26 01:20:59;;;;;;;9.00;4.60;;;;;;;19.15;100.00;100916.19;5027069;28;20423;-89
2022/08/26 01:23:37;;;;;;;8.30;4.50;;;;;;;19.11;100.00;100912.50;5025730;28;20427;-90
2022/08/26 01:26:11;;;;;;;10.98;4.75;;;;;;;19.10;100.00;100904.53;5034094;28;20436;-90
2022/08/26 01:28:40;;;;;;;8.90;4.63;;;;;;;19.03;100.00;100905.88;5023129;28;20430;-89
2022/08/26 01:31:18;;;;;;;8.70;4.90;;;;;;;19.11;100.00;100911.69;5005331;28;20931;-89
2022/08/26 01:33:50;;;;;;;13.00;4.93;;;;;;;19.03;100.00;100907.84;5002557;28;20443;-89
2022/08/26 01:36:24;;;;;;;9.27;5.05;;;;;;;19.07;100.00;100908.78;5026304;28;20410;-90
2022/08/26 01:38:53;;;;;;;9.48;5.15;;;;;;;18.99;100.00;100901.38;5025197;28;20430;-89
2022/08/26 01:41:27;;;;;;;10.02;4.90;;;;;;;19.03;100.00;100913.34;5008927;28;20428;-89
2022/08/26 01:44:02;;;;;;;9.10;5.00;;;;;;;18.94;100.00;100907.84;5027585;28;20926;-90
2022/08/26 01:46:36;;;;;;;9.88;4.90;;;;;;;19.00;100.00;100911.22;4999682;28;20423;-90
2022/08/26 01:49:10;;;;;;;9.30;4.57;;;;;;;19.01;100.00;100904.59;5026091;28;20433;-88
2022/08/26 01:51:45;;;;;;;9.35;4.80;;;;;;;19.01;100.00;100904.59;5025615;28;20453;-89
2022/08/26 01:54:20;;;;;;;9.65;4.75;;;;;;;18.88;100.00;100895.41;5024629;28;20451;-88
2022/08/26 01:56:55;;;;;;;11.38;4.80;;;;;;;18.94;100.00;100902.34;5012838;28;20428;-90
2022/08/26 01:59:29;;;;;;;9.20;4.80;;;;;;;18.97;100.00;100906.38;5006609;28;20435;-90
2022/08/26 02:01:57;;;;;;;10.30;4.65;;;;;;;18.84;100.00;100875.13;5025249;28;20422;-90
2022/08/26 02:04:36;;;;;;;9.45;4.60;;;;;;;18.98;100.00;100911.56;5028110;28;20431;-90
2022/08/26 02:07:06;;;;;;;9.23;4.67;;;;;;;18.88;100.00;100891.81;5001112;28;20424;-91
2022/08/26 02:09:39;;;;;;;8.48;4.70;;;;;;;18.68;100.00;100859.13;5003179;28;20430;-91
2022/08/26 02:12:14;;;;;;;9.68;4.80;;;;;;;18.94;100.00;100899.59;5011547;28;20435;-89
2022/08/26 02:14:53;;;;;;;12.10;5.07;;;;;;;18.67;100.00;100881.50;5026097;28;20855;-89
2022/08/26 02:17:32;;;;;;;10.68;4.90;;;;;;;18.82;100.00;100903.03;5028886;28;20430;-90
2022/08/26 02:20:02;;;;;;;8.90;4.70;;;;;;;18.89;100.00;100904.47;5008273;28;20440;-91
2022/08/26 02:22:30;;;;;;;9.63;5.30;;;;;;;18.88;100.00;100902.84;5024746;28;20441;-91
2022/08/26 02:25:11;;;;;;;10.05;4.90;;;;;;;18.80;100.00;100904.50;4998414;28;20428;-90
2022/08/26 02:27:39;;;;;;;9.55;4.78;;;;;;;18.58;100.00;100875.22;5022731;28;20932;-88
2022/08/26 02:30:11;;;;;;;10.20;5.32;;;;;;;18.77;100.00;100897.69;5028500;28;20426;-89
2022/08/26 02:32:40;;;;;;;9.20;4.57;;;;;;;18.79;100.00;100889.06;5025748;28;20903;-90
2022/08/26 02:35:15;;;;;;;9.30;5.03;;;;;;;18.69;100.00;100895.75;5018624;28;20430;-88
2022/08/26 02:37:43;;;;;;;9.40;5.18;;;;;;;18.68;100.00;100885.88;5008245;28;20435;-90
2022/08/26 02:40:21;;;;;;;8.93;4.63;;;;;;;18.72;100.00;100897.06;5003686;28;20415;-90
2022/08/26 02:42:49;;;;;;;8.18;4.82;;;;;;;18.72;100.00;100889.59;5014385;28;20433;-88
2022/08/26 02:45:17;;;;;;;9.45;4.93;;;;;;;18.68;100.00;100888.63;5012020;28;20442;-89
2022/08/26 02:47:51;;;;;;;10.77;5.40;;;;;;;18.73;100.00;100891.22;5030656;28;20430;-88
2022/08/26 02:50:25;;;;;;;9.32;4.80;;;;;;;18.73;100.00;100891.22;5029811;28;20423;-89
2022/08/26 02:52:58;;;;;;;10.98;4.95;;;;;;;18.73;100.00;100885.69;5013290;28;20430;-89
2022/08/26 02:55:32;;;;;;;12.52;5.18;;;;;;;18.65;100.00;100870.81;5031416;28;20411;-90
2022/08/26 02:58:07;;;;;;;10.82;5.28;;;;;;;18.67;100.00;100875.97;5012469;28;20886;-90
2022/08/26 03:00:36;;;;;;;11.15;5.13;;;;;;;18.65;100.00;100879.06;5015902;28;20414;-90
2022/08/26 03:03:09;;;;;;;9.13;4.90;;;;;;;18.64;100.00;100876.66;5027882;28;20430;-89
2022/08/26 03:05:43;;;;;;;9.65;4.90;;;;;;;18.62;100.00;100878.94;5008516;28;20435;-90
2022/08/26 03:08:11;;;;;;;10.75;4.90;;;;;;;18.59;100.00;100882.31;5030441;28;20673;-89
2022/08/26 03:10:46;;;;;;;10.50;4.95;;;;;;;18.55;100.00;100873.94;5010468;28;20430;-90
2022/08/26 03:13:19;;;;;;;9.55;5.20;;;;;;;18.55;100.00;100876.69;5012591;28;20423;-89
2022/08/26 03:15:47;;;;;;;10.10;5.25;;;;;;;18.55;100.00;100870.34;5025756;28;20442;-89
2022/08/26 03:18:21;;;;;;;8.80;5.30;;;;;;;18.53;100.00;100867.91;5027792;28;20803;-90
2022/08/26 03:20:54;;;;;;;12.55;5.47;;;;;;;18.54;100.00;100861.28;5030510;28;20420;-90
2022/08/26 03:23:27;;;;;;;11.23;5.30;;;;;;;18.55;100.00;100862.06;5028646;28;20914;-89
2022/08/26 03:26:02;;;;;;;10.25;4.90;;;;;;;18.57;100.00;100863.38;5022573;28;20421;-90
2022/08/26 03:28:30;;;;;;;9.45;5.13;;;;;;;18.54;100.00;100861.28;5015616;28;20442;-90
2022/08/26 03:30:58;;;;;;;9.27;5.00;;;;;;;18.52;100.00;100861.63;5024280;28;20426;-90
2022/08/26 03:33:26;;;;;;;9.63;5.38;;;;;;;18.50;100.00;100860.31;5030437;28;20424;-89
2022/08/26 03:36:02;;;;;;;10.47;5.43;;;;;;;18.46;100.00;100853.84;5004499;28;20431;-88
2022/08/26 03:38:31;;;;;;;9.50;5.30;;;;;;;18.45;100.00;100850.28;5026919;28;20446;-90
2022/08/26 03:40:59;;;;;;;9.95;5.50;;;;;;;18.27;100.00;100832.19;5012587;28;20903;-91
2022/08/26 03:43:34;;;;;;;9.40;5.25;;;;;;;18.43;100.00;100846.25;5019520;28;20435;-91
2022/08/26 03:46:09;;;;;;;11.70;5.90;;;;;;;18.56;100.00;100852.69;5029733;28;20444;-91
2022/08/26 03:48:38;;;;;;;11.05;5.82;;;;;;;18.47;100.00;100841.69;5028720;28;20427;-90
2022/08/26 03:51:14;;;;;;;12.20;5.75;;;;;;;18.31;100.00;100849.69;5026629;28;20444;-89
2022/08/26 03:53:47;;;;;;;10.73;5.10;;;;;;;18.31;100.00;100846.91;5026962;28;20423;-89
2022/08/26 03:56:21;;;;;;;11.00;5.32;;;;;;;18.32;100.00;100848.53;5014813;28;20426;-90
2022/08/26 03:58:55;;;;;;;12.05;5.45;;;;;;;18.34;100.00;100855.34;5009690;28;20421;-89
2022/08/26 04:01:24;;;;;;;8.77;5.05;;;;;;;18.33;100.00;100852.94;5025911;28;20433;-89
2022/08/26 04:03:58;;;;;;;11.30;5.55;;;;;;;18.28;100.00;100842.06;5014839;28;20520;-89
2022/08/26 04:06:33;;;;;;;11.17;5.67;;;;;;;18.20;100.00;100854.72;5029643;28;20888;-89
2022/08/26 04:09:05;;;;;;;9.52;5.47;;;;;;;18.24;100.00;100852.13;5029276;28;20431;-90
2022/08/26 04:11:38;;;;;;;9.68;5.10;;;;;;;18.24;100.00;100850.16;5013088;28;20427;-89
2022/08/26 04:14:12;;;;;;;11.55;5.47;;;;;;;18.21;100.00;100850.84;5027785;28;20413;-89
2022/08/26 04:16:41;;;;;;;11.27;5.60;;;;;;;18.30;100.00;100845.31;5010787;28;20430;-89
2022/08/26 04:19:15;;;;;;;10.13;5.47;;;;;;;18.33;100.00;100850.16;5011918;28;20938;-89
2022/08/26 04:21:45;;;;;;;10.32;5.40;;;;;;;18.33;100.00;100848.22;5006719;28;20503;-88
2022/08/26 04:24:21;;;;;;;10.23;5.50;;;;;;;18.18;100.00;100843.22;5029803;28;20419;-90
2022/08/26 04:26:49;;;;;;;11.85;6.60;;;;;;;18.16;100.00;100835.31;5030870;28;20465;-91
2022/08/26 04:29:25;;;;;;;9.68;5.80;;;;;;;18.29;100.00;100850.00;5011502;28;20442;-89
2022/08/26 04:31:59;;;;;;;11.13;6.27;;;;;;;18.29;100.00;100849.22;5027384;28;20445;-88
2022/08/26 04:34:32;;;;;;;13.32;6.20;;;;;;;18.34;100.00;100849.03;5029049;28;20772;-88
2022/08/26 04:37:06;;;;;;;12.35;6.63;;;;;;;18.37;100.00;100840.09;5017432;28;20417;-89
2022/08/26 04:39:39;;;;;;;12.60;6.75;;;;;;;18.40;100.00;100842.19;5002691;28;20419;-90
2022/08/26 04:42:12;;;;;;;12.68;7.35;;;;;;;18.43;100.00;100841.53;5011536;28;20438;-89
2022/08/26 04:44:47;;;;;;;16.73;7.60;;;;;;;18.47;100.00;100845.25;5011677;28;20529;-87
2022/08/26 04:47:20;;;;;;;17.05;7.90;;;;;;;18.45;100.00;100846.72;5009136;28;20434;-89
2022/08/26 04:49:48;;;;;;;15.68;7.05;;;;;;;18.52;100.00;100844.28;5027430;28;20434;-88
2022/08/26 04:52:16;;;;;;;15.80;7.10;;;;;;;18.52;100.00;100841.53;5027064;28;20445;-89
2022/08/26 04:54:50;;;;;;;12.97;7.47;;;;;;;18.50;100.00;100841.03;5030540;28;20419;-91
2022/08/26 04:57:18;;;;;;;12.75;7.63;;;;;;;18.38;100.00;100818.88;5013576;28;20465;-88
2022/08/26 04:59:53;;;;;;;16.63;7.88;;;;;;;18.51;100.00;100842.66;5012290;28;20915;-88
2022/08/26 05:02:26;;;;;;;15.07;8.13;;;;;;;18.42;100.00;100828.09;5023970;28;20447;-90
2022/08/26 05:04:59;;;;;;;14.45;8.45;;;;;;;18.57;100.00;100846.84;5027689;28;20777;-88
2022/08/26 05:07:33;;;;;;;19.13;8.63;;;;;;;18.46;100.00;100842.81;5022520;28;20458;-92
2022/08/26 05:10:08;;;;;;;19.50;8.05;;;;;;;18.55;100.00;100840.84;5012342;28;20953;-88
2022/08/26 05:12:36;;;;;;;17.77;8.02;;;;;;;18.50;100.00;100843.78;5028415;28;20557;-89
2022/08/26 05:15:07;;;;;;;16.40;7.28;;;;;;;18.49;100.00;100843.00;5011591;28;20431;-88
2022/08/26 05:17:40;;;;;;;18.80;8.07;;;;;;;18.56;100.00;100845.25;5024735;28;20427;-89
2022/08/26 05:20:09;;;;;;;20.40;8.05;;;;;;;18.55;100.00;100848.28;5029107;28;20891;-90
2022/08/26 05:22:42;;;;;;;17.38;8.20;;;;;;;18.53;100.00;100846.69;5029708;28;20430;-91
2022/08/26 05:25:17;;;;;;;19.07;8.43;;;;;;;18.53;100.00;100849.47;5019335;28;20493;-92
2022/08/26 05:27:50;;;;;;;19.45;8.20;;;;;;;18.63;100.00;100845.53;5028210;28;20423;-87
2022/08/26 05:30:20;;;;;;;12.65;7.93;;;;;;;18.55;100.00;100840.03;5029153;28;20807;-90
2022/08/26 05:32:53;;;;;;;15.38;8.10;;;;;;;18.44;100.00;100829.38;5009231;28;20423;-88
2022/08/26 05:35:21;;;;;;;20.92;8.65;;;;;;;18.61;100.00;100849.75;5025807;28;20906;-87
2022/08/26 05:37:54;;;;;;;17.20;8.20;;;;;;;18.63;100.00;100855.72;5003728;28;20427;-87
2022/08/26 05:40:29;;;;;;;13.77;8.50;;;;;;;18.64;100.00;100849.91;5008920;28;20733;-89
2022/08/26 05:43:09;;;;;;;16.02;8.38;;;;;;;18.74;100.00;100836.88;5024307;28;20434;-89
2022/08/26 05:45:45;;;;;;;16.02;8.27;;;;;;;18.87;100.00;100846.88;5029148;28;20425;-88
2022/08/26 05:48:20;;;;;;;18.20;8.32;;;;;;;18.82;100.00;100858.09;5002677;28;20943;-88
2022/08/26 05:50:53;;;;;;;24.30;8.75;;;;;;;18.84;100.00;100853.84;5026673;28;20947;-89
2022/08/26 05:53:26;;;;;;;14.35;8.23;;;;;;;18.82;100.00;100847.88;5025500;28;20434;-87
2022/08/26 05:55:55;;;;;;;14.05;8.18;;;;;;;18.94;100.00;100847.19;5010870;28;20435;-88
2022/08/26 05:58:28;;;;;;;14.75;9.00;;;;;;;18.99;100.00;100843.44;5011365;28;21027;-89
2022/08/26 06:01:01;;;;;;;16.08;9.45;;;;;;;18.98;100.00;100845.38;5023750;28;20431;-90
2022/08/26 06:03:30;;;;;;;16.60;9.27;;;;;;;18.96;100.00;100860.63;5010196;28;20446;-88
2022/08/26 06:05:59;;;;;;;14.35;9.20;;;;;;;19.06;100.00;100856.69;5019439;28;20903;-90
2022/08/26 06:08:27;;;;;;;18.50;8.65;;;;;;;18.98;100.00;100850.91;5004332;28;20488;-87
2022/08/26 06:11:00;;;;;;;13.20;8.38;;;;;;;19.12;100.00;100861.69;5022197;28;20906;-92
2022/08/26 06:13:34;;;;;;;13.65;8.88;;;;;;;19.13;100.00;100857.00;5024802;28;20431;-83
2022/08/26 06:16:05;;;;;;;16.70;8.98;;;;;;;18.98;100.00;100864.69;5011960;28;20461;-83
2022/08/26 06:18:41;;;;;;;17.08;9.75;;;;;;;19.08;100.00;100869.00;5027184;28;20787;-83
2022/08/26 06:21:16;;;;;;;21.80;9.77;;;;;;;18.96;100.00;100857.88;5011148;28;20432;-84
2022/08/26 06:26:38;;;;;;;18.58;10.82;;;;;;;19.16;100.00;100853.56;5023175;28;20411;-83
2022/08/26 06:29:11;;;;;;;16.08;10.43;;;;;;;19.23;100.00;100862.13;5027569;28;20422;-84
2022/08/26 06:31:41;;;;;;;17.38;10.73;;;;;;;19.38;100.00;100852.44;5034663;28;20430;-84
2022/08/26 06:34:14;;;;;;;17.48;11.75;;;;;;;19.44;100.00;100858.56;5034888;28;20415;-85
2022/08/26 06:36:44;;;;;;;15.95;10.48;;;;;;;19.33;100.00;100860.91;5016672;28;20442;-92
2022/08/26 06:39:18;;;;;;;15.80;10.50;;;;;;;19.47;100.00;100857.88;5006667;28;20441;-88
2022/08/26 06:41:51;;;;;;;16.27;10.68;;;;;;;19.46;100.00;100867.31;5010485;28;21236;-88
2022/08/26 06:44:26;;;;;;;18.37;11.03;;;;;;;19.56;100.00;100853.13;5002646;28;20419;-91
2022/08/26 06:46:56;;;;;;;16.13;10.57;;;;;;;19.42;100.00;100834.06;5013760;28;20430;-89
2022/08/26 06:49:24;;;;;;;16.50;10.85;;;;;;;19.60;100.00;100858.78;4980942;28;21083;-85
2022/08/26 06:51:53;;;;;;;15.93;10.83;;;;;;;19.74;100.00;100851.03;5007182;28;20433;-91
2022/08/26 06:54:21;;;;;;;16.05;10.57;;;;;;;19.77;100.00;100852.31;4999333;28;20439;-89
2022/08/26 06:56:55;;;;;;;16.45;10.75;;;;;;;19.91;100.00;100863.09;5008043;28;20943;-89
2022/08/26 06:59:23;;;;;;;17.20;10.43;;;;;;;19.98;100.00;100861.41;5007141;28;20453;-90
2022/08/26 07:01:53;;;;;;;16.35;11.50;;;;;;;20.12;100.00;100857.53;4986356;28;21081;-89
2022/08/26 07:04:23;;;;;;;15.50;10.48;;;;;;;20.02;100.00;100831.13;5006583;28;20430;-89
2022/08/26 07:06:57;;;;;;;16.83;10.37;;;;;;;20.13;100.00;100842.56;5009753;28;20431;-91
2022/08/26 07:09:31;;;;;;;15.30;10.18;;;;;;;20.33;100.00;100843.66;5010304;28;20443;-90
2022/08/26 07:12:00;;;;;;;15.55;10.30;;;;;;;20.45;100.00;100840.09;5000229;28;20508;-91
2022/08/26 07:14:30;;;;;;;15.97;10.60;;;;;;;20.42;100.00;100838.81;5000402;28;20421;-90
2022/08/26 07:17:03;;;;;;;18.60;10.10;;;;;;;20.50;100.00;100848.19;4998375;28;20893;-91
2022/08/26 07:19:38;;;;;;;15.40;9.50;;;;;;;20.34;100.00;100835.03;4990414;28;20797;-91
2022/08/26 07:22:06;;;;;;;14.43;9.55;;;;;;;20.58;100.00;100850.03;5012034;28;20427;-89
2022/08/26 07:24:37;;;;;;;14.95;9.75;;;;;;;20.51;100.00;100845.06;4997009;28;21106;-91
2022/08/26 07:27:13;;;;;;;15.50;10.00;;;;;;;20.69;100.00;100842.13;5003126;28;20632;-90
2022/08/26 07:29:46;;;;;;;14.53;10.27;;;;;;;20.74;100.00;100852.94;4986745;28;20833;-86
2022/08/26 07:32:20;;;;;;;14.43;9.85;;;;;;;20.81;100.00;100841.31;4992819;28;20433;-91
2022/08/26 07:34:50;;;;;;;14.88;10.15;;;;;;;20.96;100.00;100850.88;4989261;28;20429;-85
2022/08/26 07:37:23;;;;;;;14.95;9.50;;;;;;;21.08;100.00;100861.13;4994706;28;20427;-90
2022/08/26 07:39:51;;;;;;;13.52;9.45;;;;;;;21.17;100.00;100847.97;4984794;28;20766;-91
2022/08/26 07:42:24;;;;;;;21.73;14.82;;;;;;;21.37;100.00;100855.31;4988073;28;21135;-88
2022/08/26 07:44:57;;;;;;;17.23;10.70;;;;;;;21.36;100.00;100844.59;5006741;28;20459;-90
2022/08/26 07:47:25;;;;;;;16.38;9.45;;;;;;;21.52;100.00;100855.75;4992652;28;20521;-88
2022/08/26 07:50:00;;;;;;;13.65;9.15;;;;;;;21.45;100.00;100830.59;4991301;28;20441;-87
2022/08/26 07:52:34;;;;;;;16.38;9.52;;;;;;;21.72;100.00;100863.09;5007929;28;20801;-89
2022/08/26 07:55:09;;;;;;;14.25;8.85;;;;;;;21.85;100.00;100851.97;5007066;28;20435;-91
2022/08/26 07:57:42;;;;;;;13.30;8.48;;;;;;;21.84;100.00;100842.84;5004392;28;20435;-91
2022/08/26 08:00:17;;;;;;;13.97;9.13;;;;;;;21.92;100.00;100850.19;4987100;28;20540;-92
2022/08/26 08:02:46;;;;;;;13.65;8.45;;;;;;;22.02;100.00;100861.94;4988155;28;20421;-91
2022/08/26 08:05:19;;;;;;;14.18;9.68;;;;;;;22.04;100.00;100852.13;4999350;28;20438;-90
2022/08/26 08:07:48;;;;;;;14.90;8.63;;;;;;;22.33;100.00;100860.38;4994723;28;20979;-87
2022/08/26 08:10:19;;;;;;;13.68;9.15;;;;;;;22.39;100.00;100862.56;4998274;28;20438;-92
2022/08/26 08:12:53;;;;;;;15.73;8.63;;;;;;;22.32;100.00;100862.34;4984536;28;20718;-90
2022/08/26 08:15:29;;;;;;;15.05;8.77;;;;;;;22.39;100.00;100853.47;5003868;28;20433;-90
2022/08/26 08:18:03;;;;;;;14.35;9.23;;;;;;;22.46;100.00;100861.16;4987061;28;21639;-92
2022/08/26 08:20:33;;;;;;;15.35;8.40;;;;;;;22.54;100.00;100860.19;5010317;28;20445;-88
2022/08/26 08:23:03;;;;;;;16.65;8.50;;;;;;;22.46;100.00;100847.28;4987065;28;21296;-88
2022/08/26 08:25:33;;;;;;;15.98;8.38;;;;;;;22.69;100.00;100853.00;4980533;28;20462;-91
2022/08/26 08:28:01;;;;;;;13.43;8.03;;;;;;;22.49;100.00;100833.50;5007687;28;21068;-92
2022/08/26 08:30:30;;;;;;;16.92;8.48;;;;;;;22.71;100.00;100845.13;5006128;28;20427;-91
2022/08/26 08:33:03;;;;;;;16.88;8.35;;;;;;;22.80;100.00;100853.25;5002244;28;20540;-91
2022/08/26 08:35:41;;;;;;;16.43;8.03;;;;;;;22.91;100.00;100846.00;5006967;28;20461;-92
2022/08/26 08:38:14;;;;;;;20.63;7.87;;;;;;;22.98;100.00;100853.69;5001370;28;20942;-91
2022/08/26 08:40:45;;;;;;;14.27;8.15;;;;;;;23.31;100.00;100867.19;5003206;28;20435;-91
2022/08/26 08:43:18;;;;;;;20.47;7.70;;;;;;;23.29;100.00;100861.19;4987515;28;20422;-92
2022/08/26 08:45:53;;;;;;;11.55;7.75;;;;;;;23.12;100.00;100856.00;4996055;28;20450;-93
2022/08/26 08:48:24;;;;;;;12.43;7.72;;;;;;;23.19;100.00;100839.56;4988336;28;20437;-91
2022/08/26 08:50:58;;;;;;;15.77;7.78;;;;;;;23.34;100.00;100855.34;5001689;28;20449;-91
2022/08/26 08:53:33;;;;;;;15.88;8.27;;;;;;;23.44;100.00;100856.75;4985007;28;20427;-91
2022/08/26 08:56:12;;;;;;;11.75;7.40;;;;;;;23.73;100.00;100847.03;5006053;28;20921;-90
2022/08/26 08:58:53;;;;;;;11.65;7.30;;;;;;;23.94;100.00;100849.47;4998682;28;20519;-90
2022/08/26 09:01:42;;;;;;;12.80;6.93;;;;;;;23.82;100.00;100852.34;5001132;28;20439;-91
2022/08/26 09:04:27;;;;;;;11.33;7.27;;;;;;;23.84;100.00;100860.34;4986924;28;20427;-91
2022/08/26 09:06:59;;;;;;;12.63;7.43;;;;;;;23.94;100.00;100831.97;4995164;28;20910;-90
2022/08/26 09:09:37;;;;;;;13.60;7.60;;;;;;;23.96;100.00;100857.44;4983785;28;20442;-92
2022/08/26 09:12:16;;;;;;;13.30;7.90;;;;;;;23.93;100.00;100849.81;4987377;28;20449;-92
2022/08/26 09:14:47;;;;;;;12.65;7.38;;;;;;;24.10;100.00;100857.72;4991142;28;20439;-90
2022/08/26 09:17:24;;;;;;;11.50;7.68;;;;;;;24.09;100.00;100856.09;5029235;28;20441;-89
2022/08/26 09:20:06;;;;;;;15.23;7.20;;;;;;;24.13;100.00;100842.28;5001665;28;20427;-91
2022/08/26 09:22:38;;;;;;;14.88;6.65;;;;;;;24.19;100.00;100845.56;5035758;28;20433;-91
2022/08/26 09:25:13;;;;;;;14.05;6.82;;;;;;;24.01;100.00;100845.22;4995496;28;20435;-91
2022/08/26 09:27:44;;;;;;;13.10;7.20;;;;;;;24.24;100.00;100853.59;5018430;28;20442;-90
2022/08/26 09:30:18;;;;;;;14.02;7.40;;;;;;;24.44;100.00;100866.28;5018268;28;21109;-88
2022/08/26 09:32:59;;;;;;;15.23;6.90;;;;;;;24.49;100.00;100844.91;5004682;28;20445;-86
2022/08/26 09:35:34;;;;;;;12.95;6.97;;;;;;;24.53;100.00;100848.53;5018131;28;20418;-87
2022/08/26 09:38:22;;;;;;;12.65;7.13;;;;;;;24.45;100.00;100842.03;5006012;28;20419;-89
2022/08/26 09:40:56;;;;;;;13.50;7.03;;;;;;;24.52;100.00;100835.81;5016536;28;20434;-89
2022/08/26 09:43:24;;;;;;;11.68;6.32;;;;;;;24.84;100.00;100832.75;4996120;28;20430;-87
2022/08/26 09:46:12;;;;;;;14.20;8.65;;;;;;;24.89;100.00;100835.22;5021631;28;20461;-89
2022/08/26 09:48:45;;;;;;;14.75;7.97;;;;;;;24.89;100.00;100824.09;5012474;28;20417;-91
2022/08/26 09:51:30;;;;;;;13.52;6.22;;;;;;;25.07;100.00;100836.28;5015608;28;20451;-86
2022/08/26 09:54:01;;;;;;;15.10;6.25;;;;;;;25.03;100.00;100815.94;5005216;28;20437;-90
2022/08/26 09:56:37;;;;;;;12.70;6.40;;;;;;;25.08;100.00;100823.16;5021218;28;20418;-92
2022/08/26 09:59:09;;;;;;;15.70;6.20;;;;;;;25.18;100.00;100821.72;5006007;28;20448;-89
2022/08/26 10:01:43;;;;;;;10.68;6.45;;;;;;;25.17;100.00;100797.84;5019239;28;20419;-90
2022/08/26 10:04:21;;;;;;;13.47;6.67;;;;;;;25.17;100.00;100811.75;5017567;28;20473;-92
2022/08/26 10:06:56;;;;;;;14.20;5.87;;;;;;;25.36;100.00;100811.66;5003975;28;20431;-91
2022/08/26 10:09:28;;;;;;;10.80;5.82;;;;;;;25.33;100.00;100806.84;5001423;28;20426;-93
2022/08/26 10:12:00;;;;;;;12.97;6.07;;;;;;;25.48;100.00;100810.63;5016629;28;20869;-89
2022/08/26 10:14:38;;;;;;;12.10;6.00;;;;;;;25.48;100.00;100799.47;5020085;28;20422;-90
2022/08/26 10:17:11;;;;;;;12.75;5.72;;;;;;;25.76;100.00;100806.56;5019609;28;21103;-86
2022/08/26 10:19:49;;;;;;;12.25;6.00;;;;;;;25.72;100.00;100802.91;5018090;28;20523;-89
2022/08/26 10:22:31;;;;;;;19.05;8.63;;;;;;;25.84;100.00;100799.88;5014937;28;20421;-87
2022/08/26 10:25:12;;;;;;;14.80;6.00;;;;;;;25.95;100.00;100791.63;5018007;28;20437;-87
2022/08/26 10:27:51;;;;;;;11.40;5.18;;;;;;;26.08;100.00;100792.97;5015908;28;20433;-86
2022/08/26 10:30:32;;;;;;;13.25;5.53;;;;;;;26.16;100.00;100793.84;5007908;28;20440;-87
2022/08/26 10:33:08;;;;;;;12.48;5.53;;;;;;;26.01;100.00;100797.66;5010940;28;20430;-85
2022/08/26 10:35:50;;;;;;;12.02;5.63;;;;;;;25.94;100.00;100779.66;5003801;28;20433;-89
2022/08/26 10:38:29;;;;;;;12.65;5.72;;;;;;;25.83;100.00;100777.97;5000994;28;20458;-89
2022/08/26 10:41:03;;;;;;;12.73;5.70;;;;;;;25.92;100.00;100784.00;5001556;28;20449;-88
2022/08/26 10:43:42;;;;;;;13.05;5.25;;;;;;;26.13;100.00;100797.41;5005701;28;20445;-87
2022/08/26 10:46:19;;;;;;;13.37;5.70;;;;;;;26.44;100.00;100795.28;4982814;28;20487;-88
2022/08/26 10:48:57;;;;;;;14.90;5.63;;;;;;;26.62;100.00;100784.25;4999413;28;20665;-89
2022/08/26 10:51:30;;;;;;;13.93;5.38;;;;;;;26.75;100.00;100790.34;4984559;28;20430;-88
2022/08/26 10:54:05;;;;;;;12.90;5.47;;;;;;;26.51;100.00;100784.16;5004397;28;20432;-89
2022/08/26 10:56:48;;;;;;;11.07;5.28;;;;;;;26.26;100.00;100781.19;4991348;28;20463;-89
2022/08/26 10:59:26;;;;;;;15.18;5.60;;;;;;;25.95;100.00;100778.47;5010608;28;20425;-90
2022/08/26 11:02:08;;;;;;;11.90;5.50;;;;;;;26.03;100.00;100784.16;4990280;28;21217;-88
2022/08/26 11:04:48;;;;;;;13.25;5.63;;;;;;;25.97;100.00;100759.34;4993695;28;20987;-89
2022/08/26 11:07:40;;;;;;;14.90;5.60;;;;;;;26.21;100.00;100762.81;4986613;28;20772;-89
2022/08/26 11:11:02;;;;;;;15.73;5.70;;;;;;;26.51;100.00;100766.63;4994682;28;20442;-89
2022/08/26 11:14:04;;;;;;;15.93;5.35;;;;;;;26.68;100.00;100757.59;4990830;28;20430;-88
2022/08/26 11:16:36;;;;;;;12.02;5.60;;;;;;;26.68;100.00;100748.38;4990511;28;21009;-89
2022/08/26 11:19:12;;;;;;;13.23;5.00;;;;;;;26.59;100.00;100740.38;4986118;28;20456;-87
2022/08/26 11:22:05;;;;;;;14.27;5.32;;;;;;;26.56;100.00;100735.56;4997778;28;20791;-89
2022/08/26 11:24:53;;;;;;;13.50;5.40;;;;;;;26.81;100.00;100732.94;5002827;28;20427;-89
2022/08/26 11:27:53;;;;;;;13.35;4.90;;;;;;;26.79;100.00;100721.38;4999314;28;20582;-86
2022/08/26 11:30:55;;;;;;;13.07;5.07;;;;;;;26.79;100.00;100722.19;4988952;28;20427;-90
2022/08/26 11:33:57;;;;;;;14.60;4.80;;;;;;;26.72;100.00;100710.94;4985966;28;21095;-88
2022/08/26 11:36:51;;;;;;;12.98;4.82;;;;;;;26.43;100.00;100707.16;4994157;28;20442;-89
2022/08/26 11:39:28;;;;;;;15.23;5.18;;;;;;;26.44;100.00;100705.97;5007213;28;20457;-89
2022/08/26 11:42:16;;;;;;;13.90;5.32;;;;;;;26.33;100.00;100697.53;4980317;28;20437;-89
2022/08/26 11:44:50;;;;;;;13.93;5.00;;;;;;;26.28;100.00;100690.34;5012448;28;20653;-89